createdAt,value
2016-04-20T08:27:37.203Z,17.06
2016-04-20T08:28:37.191Z,17.29
2016-04-20T08:29:40.349Z,17.51
2016-04-20T08:30:37.196Z,17.39
2016-04-20T08:31:37.261Z,17.42
2016-04-20T08:32:37.201Z,17.52
2016-04-20T08:33:44.047Z,17.22
2016-04-20T08:34:37.207Z,17.27
2016-04-20T08:35:37.099Z,17.52
2016-04-20T08:36:37.774Z,17.42
2016-04-20T08:37:37.074Z,17.31
2016-04-20T08:38:37.060Z,17.05
2016-04-20T08:39:37.063Z,17.12
2016-04-20T08:40:37.051Z,17.23
2016-04-20T08:41:37.023Z,17.49
2016-04-20T08:42:36.993Z,17.41
2016-04-20T08:43:36.981Z,17.42
2016-04-20T08:44:36.984Z,17.49
2016-04-20T08:45:36.971Z,17.67
2016-04-20T08:46:36.957Z,17.87
2016-04-20T08:47:36.929Z,17.74
2016-04-20T08:48:36.917Z,17.52
2016-04-20T08:49:36.920Z,17.41
2016-04-20T08:50:36.890Z,17.45
2016-04-20T08:51:36.893Z,17.46
2016-04-20T08:52:36.864Z,17.8
2016-04-20T08:53:36.851Z,17.71
2016-04-20T08:54:36.854Z,17.54
2016-04-20T08:55:36.810Z,17.6
2016-04-20T08:56:36.828Z,17.65
2016-04-20T08:57:36.815Z,17.65
2016-04-20T08:58:36.787Z,17.65
2016-04-20T08:59:36.774Z,17.6
2016-04-20T09:00:36.761Z,17.48
2016-04-20T09:01:36.748Z,17.54
2016-04-20T09:02:36.719Z,17.6
2016-04-20T09:03:36.738Z,17.68
2016-04-20T09:04:36.724Z,17.67
2016-04-20T09:05:36.696Z,17.68
2016-04-20T09:06:36.698Z,17.54
2016-04-20T09:07:36.702Z,17.49
2016-04-20T09:08:36.673Z,17.38
2016-04-20T09:09:36.644Z,17.45
2016-04-20T09:10:36.663Z,17.51
2016-04-20T09:11:36.619Z,17.48
2016-04-20T09:12:36.637Z,17.49
2016-04-20T09:13:36.593Z,17.72
2016-04-20T09:14:36.580Z,17.72
2016-04-20T09:15:36.567Z,17.92
2016-04-20T09:16:36.538Z,17.83
2016-04-20T09:17:36.540Z,17.9
2016-04-20T09:18:36.575Z,17.89
2016-04-20T09:19:36.515Z,17.86
2016-04-20T09:20:36.503Z,17.98
2016-04-20T09:21:36.380Z,18.05
2016-04-20T09:22:36.272Z,18.15
2016-04-20T09:23:36.556Z,18.11
2016-04-20T09:24:36.450Z,18.07
2016-04-20T09:25:36.452Z,18.08
2016-04-20T09:26:36.424Z,18.18
2016-04-20T09:27:36.441Z,18.29
2016-04-20T09:28:36.398Z,18.38
2016-04-20T09:29:36.401Z,18.6
2016-04-20T09:30:36.372Z,18.53
2016-04-20T09:31:36.359Z,18.71
2016-04-20T09:32:36.346Z,18.7
2016-04-20T09:33:36.332Z,18.68
2016-04-20T09:34:36.335Z,18.73
2016-04-20T09:35:36.307Z,18.77
2016-04-20T09:36:36.309Z,18.78
2016-04-20T09:37:36.281Z,18.71
2016-04-20T09:38:36.283Z,18.65
2016-04-20T09:39:36.271Z,18.56
2016-04-20T09:40:36.242Z,18.8
2016-04-20T09:41:36.245Z,18.6
2016-04-20T09:42:36.529Z,18.38
2016-04-20T09:43:36.281Z,18.34
2016-04-20T09:44:36.222Z,18.62
2016-04-20T09:45:36.177Z,18.77
2016-04-20T09:46:36.196Z,18.62
2016-04-20T09:47:36.167Z,18.62
2016-04-20T09:48:36.155Z,18.6
2016-04-20T09:49:36.142Z,18.62
2016-04-20T09:50:36.144Z,18.66
2016-04-20T09:51:36.116Z,18.83
2016-04-20T09:52:36.102Z,19.12
2016-04-20T09:53:36.090Z,18.96
2016-04-20T09:54:36.093Z,18.68
2016-04-20T09:55:36.080Z,18.8
2016-04-20T09:56:36.066Z,18.8
2016-04-20T09:57:36.054Z,18.81
2016-04-20T09:58:36.041Z,18.88
2016-04-20T09:59:36.027Z,18.99
2016-04-20T10:00:35.999Z,18.75
2016-04-20T10:01:35.986Z,18.8
2016-04-20T10:02:35.973Z,18.74
2016-04-20T10:03:35.992Z,18.45
2016-04-20T10:04:35.947Z,18.66
2016-04-20T10:05:35.950Z,18.71
2016-04-20T10:06:35.937Z,18.56
2016-04-20T10:07:35.939Z,18.81
2016-04-20T10:08:35.926Z,18.78
2016-04-20T10:09:35.914Z,18.63
2016-04-20T10:10:36.089Z,18.78
2016-04-20T10:11:35.935Z,18.73
2016-04-20T10:12:35.875Z,18.84
2016-04-20T10:13:35.847Z,18.81
2016-04-20T10:14:35.850Z,19.08
2016-04-20T10:15:35.837Z,19.21
2016-04-20T10:16:35.823Z,19.19
2016-04-20T10:17:35.795Z,19.07
2016-04-20T10:18:35.814Z,18.78
2016-04-20T10:19:35.769Z,18.65
2016-04-20T10:20:35.772Z,18.6
2016-04-20T10:21:35.759Z,18.78
2016-04-20T10:22:35.746Z,18.68
2016-04-20T10:23:35.764Z,18.74
2016-04-20T10:24:35.720Z,18.75
2016-04-20T10:25:35.722Z,18.78
2016-04-20T10:26:35.554Z,18.95
2016-04-20T10:27:35.681Z,19.02
2016-04-20T10:28:35.684Z,19.08
2016-04-20T10:29:35.655Z,19.11
2016-04-20T10:30:35.658Z,19.18
2016-04-20T10:31:35.645Z,19.29
2016-04-20T10:32:35.663Z,19.27
2016-04-20T10:33:35.635Z,19.47
2016-04-20T10:34:35.622Z,19.29
2016-04-20T10:35:35.610Z,19.07
2016-04-20T10:36:35.612Z,19.02
2016-04-20T10:37:35.614Z,19.34
2016-04-20T10:38:37.242Z,19.26
2016-04-20T10:39:35.542Z,19.39
2016-04-20T10:40:35.544Z,19.29
2016-04-20T10:41:35.516Z,19.41
2016-04-20T10:42:35.534Z,19.18
2016-04-20T10:43:35.506Z,19.21
2016-04-20T10:44:35.492Z,19.39
2016-04-20T10:45:35.495Z,19.37
2016-04-20T10:46:35.514Z,19.39
2016-04-20T10:47:35.439Z,19.69
2016-04-20T10:48:35.441Z,20.09
2016-04-20T10:49:35.444Z,19.86
2016-04-20T10:50:35.430Z,20.13
2016-04-20T10:51:35.261Z,19.86
2016-04-20T10:52:35.405Z,20.21
2016-04-20T10:53:35.376Z,20.11
2016-04-20T10:54:35.394Z,20.5
2016-04-20T10:55:35.382Z,20.85
2016-04-20T10:56:35.369Z,20.82
2016-04-20T10:57:35.355Z,21.33
2016-04-20T10:58:35.327Z,21.09
2016-04-20T10:59:35.313Z,21.27
2016-04-20T11:00:35.316Z,21.18
2016-04-20T11:01:35.366Z,20.69
2016-04-20T11:02:35.291Z,20.32
2016-04-20T11:03:35.263Z,20.04
2016-04-20T11:04:35.281Z,20
2016-04-20T11:05:35.299Z,19.71
2016-04-20T11:06:35.129Z,20.09
2016-04-20T11:07:35.257Z,20.74
2016-04-20T11:08:35.245Z,22.23
2016-04-20T11:09:35.232Z,22.66
2016-04-20T11:10:35.422Z,22.81
2016-04-20T11:11:35.112Z,21.88
2016-04-20T11:12:35.209Z,21.32
2016-04-20T11:13:35.181Z,21.3
2016-04-20T11:14:38.229Z,21.05
2016-04-20T11:15:35.186Z,20.95
2016-04-20T11:16:35.188Z,21.85
2016-04-20T11:17:35.159Z,22.38
2016-04-20T11:18:35.131Z,22.99
2016-04-20T11:19:35.134Z,22.43
2016-04-20T11:20:35.121Z,22.38
2016-04-20T11:21:35.123Z,22.69
2016-04-20T11:22:35.001Z,22.87
2016-04-20T11:23:35.457Z,22.91
2016-04-20T11:24:35.100Z,23.8
2016-04-20T11:25:35.103Z,23.98
2016-04-20T11:26:35.090Z,23.5
2016-04-20T11:27:35.077Z,23.48
2016-04-20T11:28:35.095Z,23.71
2016-04-20T11:29:35.082Z,24.55
2016-04-20T11:30:35.069Z,23.96
2016-04-20T11:31:35.041Z,23.58
2016-04-20T11:32:35.060Z,24.17
2016-04-20T11:33:35.063Z,25.17
2016-04-20T11:34:35.049Z,25.5
2016-04-20T11:35:35.052Z,25.03
2016-04-20T11:36:35.023Z,23.61
2016-04-20T11:37:35.041Z,22.48
2016-04-20T11:38:35.029Z,22.1
2016-04-20T11:39:35.032Z,22.85
2016-04-20T11:40:35.003Z,22.51
2016-04-20T11:41:35.006Z,23.21
2016-04-20T11:42:35.023Z,23.86
2016-04-20T11:43:35.011Z,24.02
2016-04-20T11:44:35.013Z,23.91
2016-04-20T11:45:35.001Z,24.11
2016-04-20T11:46:35.003Z,23.55
2016-04-20T11:47:34.974Z,22.76
2016-04-20T11:48:34.978Z,22.36
2016-04-20T11:49:34.995Z,23.23
2016-04-20T11:50:34.951Z,23.1
2016-04-20T11:51:34.954Z,22.17
2016-04-20T11:52:34.956Z,22.32
2016-04-20T11:53:34.975Z,21.77
2016-04-20T11:54:34.947Z,21.77
2016-04-20T11:55:34.933Z,22.13
2016-04-20T11:56:34.952Z,22.65
2016-04-20T11:57:34.923Z,22.32
2016-04-20T11:58:34.941Z,22.22
2016-04-20T11:59:34.914Z,22.8
2016-04-20T12:00:34.994Z,22.6
2016-04-20T12:01:34.919Z,22.94
2016-04-20T12:02:35.015Z,23.74
2016-04-20T12:03:34.892Z,23.84
2016-04-20T12:04:34.895Z,23.68
2016-04-20T12:05:34.930Z,24.21
2016-04-20T12:06:34.901Z,24.3
2016-04-20T12:07:34.888Z,23.84
2016-04-20T12:08:34.874Z,22.68
2016-04-20T12:09:34.877Z,22.93
2016-04-20T12:10:34.864Z,22.81
2016-04-20T12:11:34.898Z,22.39
2016-04-20T12:12:34.855Z,22.78
2016-04-20T12:13:34.842Z,23.18
2016-04-20T12:14:34.845Z,22.85
2016-04-20T12:15:34.831Z,22.78
2016-04-20T12:16:34.833Z,21.98
2016-04-20T12:17:34.821Z,21.51
2016-04-20T12:18:34.824Z,21.32
2016-04-20T12:19:34.811Z,20.72
2016-04-20T12:20:35.189Z,20.63
2016-04-20T12:21:34.800Z,20.24
2016-04-20T12:22:34.787Z,20.11
2016-04-20T12:23:34.790Z,20.4
2016-04-20T12:24:34.792Z,20.72
2016-04-20T12:25:34.624Z,20.6
2016-04-20T12:26:34.766Z,20.99
2016-04-20T12:27:34.769Z,20.81
2016-04-20T12:28:34.757Z,21
2016-04-20T12:29:34.744Z,21.51
2016-04-20T12:30:34.746Z,21.22
2016-04-20T12:31:34.766Z,20.52
2016-04-20T12:32:34.720Z,20.88
2016-04-20T12:33:34.723Z,21.24
2016-04-20T12:34:34.694Z,21.51
2016-04-20T12:35:34.682Z,21.37
2016-04-20T12:36:34.685Z,21.25
2016-04-20T12:37:34.672Z,21.06
2016-04-20T12:38:34.674Z,21.06
2016-04-20T12:39:34.662Z,20.93
2016-04-20T12:40:34.852Z,20.95
2016-04-20T12:41:34.636Z,20.8
2016-04-20T12:42:34.623Z,21.43
2016-04-20T12:43:34.625Z,21.36
2016-04-20T12:44:34.612Z,22
2016-04-20T12:45:34.599Z,22.81
2016-04-20T12:46:34.602Z,23.21
2016-04-20T12:47:34.621Z,22.76
2016-04-20T12:48:34.607Z,22.11
2016-04-20T12:49:34.579Z,22.39
2016-04-20T12:50:34.566Z,22.33
2016-04-20T12:51:34.569Z,22.07
2016-04-20T12:52:34.556Z,22.1
2016-04-20T12:53:34.542Z,21.7
2016-04-20T12:54:34.530Z,21.37
2016-04-20T12:55:34.548Z,22.07
2016-04-20T12:56:34.520Z,22.32
2016-04-20T12:57:34.522Z,21.58
2016-04-20T12:58:34.509Z,22.07
2016-04-20T12:59:34.497Z,22.88
2016-04-20T13:00:34.499Z,23.69
2016-04-20T13:01:34.501Z,23.61
2016-04-20T13:02:34.504Z,22.48
2016-04-20T13:03:34.523Z,22.17
2016-04-20T13:04:34.463Z,22.43
2016-04-20T13:05:34.513Z,22.47
2016-04-20T13:06:34.468Z,22.08
2016-04-20T13:07:34.471Z,21.83
2016-04-20T13:08:34.443Z,22.07
2016-04-20T13:09:34.446Z,21.91
2016-04-20T13:10:34.432Z,22.08
2016-04-20T13:11:34.418Z,22.13
2016-04-20T13:12:34.421Z,22.48
2016-04-20T13:13:34.409Z,22.84
2016-04-20T13:14:34.412Z,23.15
2016-04-20T13:15:34.399Z,22.15
2016-04-20T13:16:34.401Z,21.72
2016-04-20T13:17:34.373Z,22.5
2016-04-20T13:18:34.392Z,22.94
2016-04-20T13:19:34.378Z,22.84
2016-04-20T13:20:34.365Z,22.93
2016-04-20T13:21:34.353Z,23.05
2016-04-20T13:22:34.355Z,23.09
2016-04-20T13:23:34.358Z,22.69
2016-04-20T13:24:34.344Z,22.7
2016-04-20T13:25:34.363Z,22.68
2016-04-20T13:26:34.350Z,22.8
2016-04-20T13:27:34.322Z,22.98
2016-04-20T13:28:34.340Z,22.26
2016-04-20T13:29:34.311Z,21.67
2016-04-20T13:30:34.314Z,22.1
2016-04-20T13:31:34.332Z,23.8
2016-04-20T13:32:34.289Z,23.63
2016-04-20T13:33:34.307Z,24.61
2016-04-20T13:34:34.294Z,24.69
2016-04-20T13:35:34.296Z,25.01
2016-04-20T13:36:34.315Z,23.8
2016-04-20T13:37:34.285Z,24.14
2016-04-20T13:38:34.274Z,24.28
2016-04-20T13:39:34.276Z,23.09
2016-04-20T13:40:34.247Z,22.96
2016-04-20T13:41:34.250Z,22.96
2016-04-20T13:42:34.237Z,23.18
2016-04-20T13:43:34.286Z,24.3
2016-04-20T13:44:34.243Z,23.78
2016-04-20T13:45:34.479Z,23.37
2016-04-20T13:46:34.232Z,23.78
2016-04-20T13:47:34.469Z,23.98
2016-04-20T13:48:34.223Z,23.24
2016-04-20T13:49:34.225Z,23.63
2016-04-20T13:50:34.446Z,24.77
2016-04-20T13:51:34.230Z,23.92
2016-04-20T13:52:34.202Z,22.75
2016-04-20T13:53:34.220Z,22.84
2016-04-20T13:54:34.206Z,22.51
2016-04-20T13:55:34.225Z,22.44
2016-04-20T13:56:34.197Z,22.94
2016-04-20T13:57:34.199Z,22.66
2016-04-20T13:58:34.187Z,22.1
2016-04-20T13:59:34.173Z,22.36
2016-04-20T14:00:34.176Z,23.71
2016-04-20T14:01:34.789Z,23.58
2016-04-20T14:02:34.181Z,22.7
2016-04-20T14:03:34.372Z,22.59
2016-04-20T14:04:34.171Z,22.68
2016-04-20T14:05:34.143Z,22.23
2016-04-20T14:06:38.363Z,21.36
2016-04-20T14:07:35.274Z,21.46
2016-04-20T14:08:35.104Z,21.46
2016-04-20T14:09:35.029Z,21.2
2016-04-20T14:10:37.063Z,21.24
2016-04-20T14:11:34.987Z,20.56
2016-04-20T14:12:36.552Z,20.56
2016-04-20T14:13:37.774Z,21.21
2016-04-20T14:14:35.277Z,21.25
2016-04-20T14:15:35.638Z,21.58
2016-04-20T14:16:34.797Z,21.54
2016-04-20T14:17:38.393Z,21.21
2016-04-20T14:18:39.943Z,21.17
2016-04-20T14:19:35.899Z,21.05
2016-04-20T14:20:36.309Z,20.77
2016-04-20T14:21:34.217Z,20.84
2016-04-20T14:22:39.830Z,20.8
2016-04-20T14:23:36.582Z,20.77
2016-04-20T14:24:35.257Z,20.84
2016-04-20T14:25:34.104Z,20.82
2016-04-20T14:26:36.185Z,21.17
2016-04-20T14:27:34.093Z,21.25
2016-04-20T14:28:34.799Z,20.56
2016-04-20T14:29:36.068Z,20.84
2016-04-20T14:30:33.977Z,20.43
2016-04-20T14:31:33.979Z,21.11
2016-04-20T14:32:33.950Z,22.17
2016-04-20T14:33:33.984Z,22.69
2016-04-20T14:34:34.847Z,22.81
2016-04-20T14:35:36.537Z,24.23
2016-04-20T14:36:36.555Z,23.92
2016-04-20T14:37:33.917Z,22.75
2016-04-20T14:38:33.904Z,22.68
2016-04-20T14:39:33.923Z,22.69
2016-04-20T14:40:33.941Z,21.6
2016-04-20T14:41:33.991Z,21.3
2016-04-20T14:42:33.931Z,21.4
2016-04-20T14:43:33.886Z,21.25
2016-04-20T14:44:34.014Z,20.77
2016-04-20T14:45:33.877Z,19.88
2016-04-20T14:46:33.848Z,21.05
2016-04-20T14:47:33.866Z,21.62
2016-04-20T14:48:33.838Z,22.66
2016-04-20T14:49:33.841Z,22.83
2016-04-20T14:50:33.811Z,22.54
2016-04-20T14:51:33.799Z,23.39
2016-04-20T14:52:33.816Z,24.48
2016-04-20T14:53:33.960Z,22.91
2016-04-20T14:54:33.791Z,22.51
2016-04-20T14:55:33.779Z,23.83
2016-04-20T14:56:33.921Z,25.65
2016-04-20T14:57:33.784Z,25.35
2016-04-20T14:58:33.755Z,26.31
2016-04-20T14:59:33.758Z,25.31
2016-04-20T15:00:33.760Z,23.56
2016-04-20T15:01:33.748Z,22.73
2016-04-20T15:02:33.734Z,23.1
2016-04-20T15:03:33.737Z,23.96
2016-04-20T15:04:33.739Z,23.15
2016-04-20T15:05:33.726Z,22.69
2016-04-20T15:06:33.729Z,22.07
2016-04-20T15:07:33.732Z,21.37
2016-04-20T15:08:33.704Z,20.75
2016-04-20T15:09:33.785Z,21.14
2016-04-20T15:10:33.709Z,21.37
2016-04-20T15:11:33.712Z,21.8
2016-04-20T15:12:33.683Z,22.78
2016-04-20T15:13:33.764Z,23.4
2016-04-20T15:14:33.657Z,23.47
2016-04-20T15:15:33.660Z,23.34
2016-04-20T15:16:35.038Z,22.8
2016-04-20T15:17:33.649Z,23.88
2016-04-20T15:18:33.652Z,23.99
2016-04-20T15:19:33.624Z,23.91
2016-04-20T15:20:33.627Z,24.24
2016-04-20T15:21:33.660Z,24.66
2016-04-20T15:22:33.632Z,23.74
2016-04-20T15:23:33.604Z,23.86
2016-04-20T15:24:33.590Z,23.17
2016-04-20T15:25:33.624Z,22.57
2016-04-20T15:26:33.580Z,22.3
2016-04-20T15:27:33.739Z,20.92
2016-04-20T15:28:34.024Z,20.43
2016-04-20T15:29:33.604Z,20.4
2016-04-20T15:30:33.591Z,19.96
2016-04-20T15:31:33.562Z,20.26
2016-04-20T15:32:33.565Z,20.1
2016-04-20T15:33:33.756Z,20.22
2016-04-20T15:34:33.679Z,20.04
2016-04-20T15:35:33.557Z,19.54
2016-04-20T15:36:33.642Z,19.88
2016-04-20T15:37:33.505Z,19.81
2016-04-20T15:38:33.492Z,19.91
2016-04-20T15:39:33.494Z,20.16
2016-04-20T15:40:33.498Z,20.14
2016-04-20T15:41:33.485Z,19.86
2016-04-20T15:42:33.613Z,19.76
2016-04-20T15:43:33.444Z,19.7
2016-04-20T15:44:33.447Z,19.52
2016-04-20T15:45:33.433Z,19.74
2016-04-20T15:46:33.436Z,19.59
2016-04-20T15:47:33.408Z,20.03
2016-04-20T15:48:33.411Z,20.11
2016-04-20T15:49:33.382Z,20.13
2016-04-20T15:50:33.385Z,20.36
2016-04-20T15:51:33.730Z,20.51
2016-04-20T15:52:33.390Z,20.1
2016-04-20T15:53:33.361Z,20.13
2016-04-20T15:54:33.332Z,20.11
2016-04-20T15:55:33.319Z,19.69
2016-04-20T15:56:33.337Z,19.64
2016-04-20T15:57:33.309Z,19.58
2016-04-20T15:58:33.318Z,19.54
2016-04-20T15:59:33.362Z,19.24
2016-04-20T16:00:33.391Z,19.45
2016-04-20T16:01:33.419Z,19.34
2016-04-20T16:02:33.479Z,19.15
2016-04-20T16:03:33.458Z,19.26
2016-04-20T16:04:33.162Z,18.99
2016-04-20T16:06:48.660Z,18.98
2016-04-20T16:07:01.551Z,19.02
2016-04-20T16:08:01.691Z,19.24
2016-04-20T16:09:01.714Z,19.21
2016-04-20T16:10:01.692Z,19.34
2016-04-20T16:11:01.699Z,19.15
2016-04-20T16:12:01.661Z,19.08
2016-04-20T16:13:01.667Z,19.18
2016-04-20T16:14:01.657Z,19
2016-04-20T16:15:01.662Z,19.21
2016-04-20T16:16:01.667Z,19.08
2016-04-20T16:17:01.654Z,18.8
2016-04-20T16:18:01.628Z,18.59
2016-04-20T16:19:01.616Z,18.73
2016-04-20T16:20:01.588Z,18.93
2016-04-20T16:21:01.592Z,18.96
2016-04-20T16:22:01.579Z,19.27
2016-04-20T16:23:01.568Z,19.34
2016-04-20T16:24:01.538Z,19.21
2016-04-20T16:25:01.541Z,19.27
2016-04-20T16:26:01.529Z,19.27
2016-04-20T16:27:01.516Z,19.15
2016-04-20T16:28:01.519Z,19.29
2016-04-20T16:29:01.491Z,19.08
2016-04-20T16:30:01.494Z,18.9
2016-04-20T16:31:01.513Z,18.74
2016-04-20T16:32:01.452Z,18.74
2016-04-20T16:33:01.471Z,19.04
2016-04-20T16:34:01.441Z,19.31
2016-04-20T16:35:01.476Z,19.11
2016-04-20T16:36:01.401Z,19.24
2016-04-20T16:37:01.403Z,19.22
2016-04-20T16:38:01.406Z,19.29
2016-04-20T16:39:01.377Z,19.36
2016-04-20T16:40:02.349Z,19.3
2016-04-20T16:41:01.382Z,19.18
2016-04-20T16:42:01.338Z,19.41
2016-04-20T16:43:01.341Z,19.58
2016-04-20T16:44:01.312Z,19.37
2016-04-20T16:45:01.300Z,19.22
2016-04-20T16:46:01.318Z,19.37
2016-04-20T16:47:01.289Z,19.39
2016-04-20T16:48:01.261Z,19.49
2016-04-20T16:49:01.264Z,19.62
2016-04-20T16:50:01.235Z,19.76
2016-04-20T16:51:01.254Z,19.69
2016-04-20T16:52:01.209Z,19.26
2016-04-20T16:53:01.243Z,19.22
2016-04-20T16:54:01.199Z,19.18
2016-04-20T16:55:01.186Z,19.34
2016-04-20T16:56:01.158Z,19.15
2016-04-20T16:57:01.175Z,19.31
2016-04-20T16:58:01.163Z,19.36
2016-04-20T16:59:01.134Z,19.44
2016-04-20T17:00:01.137Z,19.19
2016-04-20T17:01:01.124Z,19.02
2016-04-20T17:02:01.096Z,19.09
2016-04-20T17:03:01.082Z,18.99
2016-04-20T17:04:01.132Z,18.83
2016-04-20T17:05:01.072Z,18.99
2016-04-20T17:06:01.044Z,19.3
2016-04-20T17:07:01.046Z,19.51
2016-04-20T17:08:01.033Z,19.44
2016-04-20T17:09:01.021Z,19.48
2016-04-20T17:10:01.023Z,19.19
2016-04-20T17:11:01.041Z,18.84
2016-04-20T17:12:00.982Z,18.66
2016-04-20T17:13:00.969Z,18.81
2016-04-20T17:14:00.237Z,18.6
2016-04-20T17:15:00.959Z,18.6
2016-04-20T17:16:00.930Z,18.74
2016-04-20T17:17:00.918Z,18.6
2016-04-20T17:18:00.904Z,18.56
2016-04-20T17:19:00.891Z,18.7
2016-04-20T17:20:00.894Z,18.86
2016-04-20T17:21:00.865Z,18.98
2016-04-20T17:22:00.868Z,18.86
2016-04-20T17:23:00.840Z,19.08
2016-04-20T17:24:00.826Z,19.18
2016-04-20T17:25:00.814Z,18.86
2016-04-20T17:26:00.817Z,18.96
2016-04-20T17:27:00.788Z,18.74
2016-04-20T17:28:00.805Z,18.83
2016-04-20T17:29:00.777Z,18.95
2016-04-20T17:30:00.765Z,18.84
2016-04-20T17:31:02.080Z,18.74
2016-04-20T17:32:06.254Z,18.71
2016-04-20T17:33:03.930Z,18.38
2016-04-20T17:34:03.385Z,18.45
2016-04-20T17:35:06.028Z,18.62
2016-04-20T17:36:05.031Z,18.65
2016-04-20T17:37:04.596Z,18.38
2016-04-20T17:38:01.411Z,18.25
2016-04-20T17:39:02.882Z,18.4
2016-04-20T17:40:04.385Z,18.44
2016-04-20T17:41:05.560Z,18.34
2016-04-20T17:42:05.047Z,18.25
2016-04-20T17:43:03.238Z,17.87
2016-04-20T17:44:00.599Z,17.89
2016-04-20T17:45:00.587Z,17.86
2016-04-20T17:46:00.574Z,18.1
2016-04-20T17:47:00.545Z,17.98
2016-04-20T17:48:00.548Z,18.08
2016-04-20T17:49:00.534Z,18.08
2016-04-20T17:50:00.569Z,18.1
2016-04-20T17:51:00.337Z,18.11
2016-04-20T17:52:00.527Z,17.9
2016-04-20T17:53:00.467Z,18.01
2016-04-20T17:54:04.257Z,18.05
2016-04-20T17:55:00.448Z,18.04
2016-04-20T17:56:00.465Z,17.95
2016-04-20T17:58:02.862Z,17.89
2016-04-20T17:58:15.893Z,17.92
2016-04-20T17:59:15.879Z,17.89
2016-04-20T18:00:15.695Z,17.89
2016-04-20T18:01:15.838Z,17.87
2016-04-20T18:02:15.825Z,17.82
2016-04-20T18:03:15.812Z,17.82
2016-04-20T18:04:15.814Z,17.92
2016-04-20T18:05:15.771Z,17.89
2016-04-20T18:06:15.789Z,17.74
2016-04-20T18:07:15.775Z,17.65
2016-04-20T18:08:15.761Z,17.71
2016-04-20T18:09:15.749Z,17.72
2016-04-20T18:10:15.704Z,17.71
2016-04-20T18:11:15.706Z,17.64
2016-04-20T18:12:15.695Z,17.59
2016-04-20T18:13:15.681Z,17.48
2016-04-20T18:14:15.668Z,17.44
2016-04-20T18:15:15.655Z,17.6
2016-04-20T18:16:15.642Z,17.49
2016-04-20T18:17:15.634Z,17.46
2016-04-20T18:18:15.637Z,17.48
2016-04-20T18:19:15.623Z,17.49
2016-04-20T18:20:15.578Z,17.49
2016-04-20T18:21:15.566Z,17.51
2016-04-20T18:22:15.558Z,17.46
2016-04-20T18:23:15.545Z,17.45
2016-04-20T18:24:15.532Z,17.42
2016-04-20T18:25:15.519Z,17.29
2016-04-20T18:26:15.505Z,17.39
2016-04-20T18:27:15.494Z,17.46
2016-04-20T18:28:15.496Z,17.39
2016-04-20T18:29:15.483Z,17.42
2016-04-20T18:30:15.439Z,17.39
2016-04-20T18:31:15.425Z,17.26
2016-04-20T18:32:15.444Z,17.16
2016-04-20T18:33:15.416Z,17.26
2016-04-20T18:34:15.387Z,17.24
2016-04-20T18:35:15.358Z,17.29
2016-04-20T18:36:15.361Z,17.26
2016-04-20T18:37:15.349Z,17.31
2016-04-20T18:38:15.351Z,17.27
2016-04-20T18:39:15.338Z,17.36
2016-04-20T18:40:15.310Z,17.34
2016-04-20T18:42:06.690Z,17.16
2016-04-20T18:42:20.018Z,17.19
2016-04-20T18:43:19.740Z,17.11
2016-04-20T18:44:20.007Z,17.04
2016-04-20T18:45:19.854Z,16.91
2016-04-20T18:46:19.903Z,17.05
2016-04-20T18:47:19.751Z,17.02
2016-04-20T18:48:19.846Z,16.99
2016-04-20T18:49:20.021Z,17.08
2016-04-20T18:50:19.867Z,17.12
2016-04-20T18:51:19.745Z,17.09
2016-04-20T18:52:19.685Z,17.08
2016-04-20T18:53:19.673Z,17.02
2016-04-20T18:54:19.737Z,16.99
2016-04-20T18:55:19.662Z,16.91
2016-04-20T18:56:19.618Z,16.9
2016-04-20T18:57:19.620Z,16.94
2016-04-20T18:58:19.592Z,16.97
2016-04-20T18:59:19.595Z,17.11
2016-04-20T19:00:19.597Z,16.97
2016-04-20T19:01:19.539Z,17.08
2016-04-20T19:02:19.541Z,17.05
2016-04-20T19:03:19.496Z,16.96
2016-04-20T19:04:19.483Z,17.05
2016-04-20T19:05:19.486Z,16.97
2016-04-20T19:06:19.474Z,17.01
2016-04-20T19:07:19.445Z,16.87
2016-04-20T19:08:19.274Z,16.89
2016-04-20T19:09:19.418Z,16.96
2016-04-20T19:10:19.421Z,16.9
2016-04-20T19:11:19.393Z,16.91
2016-04-20T19:12:19.379Z,16.87
2016-04-20T19:13:19.368Z,16.89
2016-04-20T19:14:19.354Z,16.9
2016-04-20T19:15:19.357Z,16.91
2016-04-20T19:16:20.407Z,16.91
2016-04-20T19:17:19.315Z,16.96
2016-04-20T19:18:19.301Z,17.06
2016-04-20T19:19:19.320Z,16.94
2016-04-20T19:20:19.292Z,16.93
2016-04-20T19:21:19.264Z,16.89
2016-04-20T19:22:19.329Z,16.84
2016-04-20T19:23:19.237Z,16.86
2016-04-20T19:24:19.209Z,16.76
2016-04-20T19:25:19.211Z,16.9
2016-04-20T19:26:19.183Z,16.72
2016-04-20T19:27:19.170Z,16.83
2016-04-20T19:28:19.158Z,16.79
2016-04-20T19:29:19.160Z,16.81
2016-04-20T19:30:19.131Z,16.75
2016-04-20T19:31:19.119Z,16.83
2016-04-20T19:32:19.121Z,16.91
2016-04-20T19:33:19.109Z,16.87
2016-04-20T19:34:19.080Z,16.87
2016-04-20T19:35:19.066Z,16.83
2016-04-20T19:36:22.054Z,16.78
2016-04-20T19:37:19.041Z,16.78
2016-04-20T19:38:19.043Z,16.83
2016-04-20T19:39:19.016Z,16.79
2016-04-20T19:40:19.018Z,16.86
2016-04-20T19:41:18.974Z,16.83
2016-04-20T19:42:18.946Z,16.83
2016-04-20T19:43:18.979Z,16.72
2016-04-20T19:44:18.919Z,16.78
2016-04-20T19:45:18.921Z,16.89
2016-04-20T19:46:18.893Z,16.78
2016-04-20T19:47:18.912Z,16.81
2016-04-20T19:48:18.883Z,16.78
2016-04-20T19:49:18.854Z,16.79
2016-04-20T19:50:18.857Z,16.79
2016-04-20T19:51:18.845Z,16.76
2016-04-20T19:52:18.847Z,16.71
2016-04-20T19:53:18.818Z,16.6
2016-04-20T19:54:18.805Z,16.6
2016-04-20T19:55:18.792Z,16.53
2016-04-20T19:56:18.748Z,16.6
2016-04-20T19:57:18.736Z,16.61
2016-04-20T19:58:18.738Z,16.56
2016-04-20T19:59:18.756Z,16.6
2016-04-20T20:00:18.712Z,16.6
2016-04-20T20:01:18.715Z,16.66
2016-04-20T20:02:18.670Z,16.56
2016-04-20T20:03:18.673Z,16.6
2016-04-20T20:04:18.660Z,16.6
2016-04-20T20:05:18.633Z,16.49
2016-04-20T20:06:18.619Z,16.54
2016-04-20T20:07:18.622Z,16.5
2016-04-20T20:08:18.593Z,16.5
2016-04-20T20:09:18.596Z,16.49
2016-04-20T20:10:18.566Z,16.38
2016-04-20T20:11:18.554Z,16.36
2016-04-20T20:12:18.542Z,16.46
2016-04-20T20:13:18.528Z,16.39
2016-04-20T20:14:18.515Z,16.42
2016-04-20T20:15:21.565Z,16.54
2016-04-20T20:16:18.474Z,16.57
2016-04-20T20:17:18.446Z,16.53
2016-04-20T20:18:18.448Z,16.46
2016-04-20T20:19:18.435Z,16.41
2016-04-20T20:20:21.438Z,16.49
2016-04-20T20:21:18.393Z,16.54
2016-04-20T20:22:18.388Z,16.57
2016-04-20T20:23:18.386Z,16.66
2016-04-20T20:24:18.389Z,16.58
2016-04-20T20:25:18.344Z,16.6
2016-04-20T20:26:18.175Z,16.51
2016-04-20T20:27:18.333Z,16.58
2016-04-20T20:28:18.322Z,16.68
2016-04-20T20:29:18.292Z,16.76
2016-04-20T20:30:18.263Z,16.65
2016-04-20T20:31:18.642Z,16.84
2016-04-20T20:32:18.238Z,16.72
2016-04-20T20:33:18.225Z,16.74
2016-04-20T20:34:18.212Z,16.84
2016-04-20T20:35:18.199Z,16.69
2016-04-20T20:36:18.186Z,16.66
2016-04-20T20:37:18.173Z,16.71
2016-04-20T20:38:18.161Z,16.54
2016-04-20T20:39:18.163Z,16.41
2016-04-20T20:40:27.134Z,16.54
2016-04-20T20:41:18.137Z,16.54
2016-04-20T20:42:18.140Z,16.58
2016-04-20T20:43:18.095Z,16.6
2016-04-20T20:44:18.082Z,16.61
2016-04-20T20:45:18.054Z,16.74
2016-04-20T20:46:18.056Z,16.65
2016-04-20T20:47:18.029Z,16.57
2016-04-20T20:48:18.000Z,16.51
2016-04-20T20:49:18.002Z,16.54
2016-04-20T20:50:18.037Z,16.6
2016-04-20T20:51:17.992Z,16.51
2016-04-20T20:52:17.963Z,16.69
2016-04-20T20:53:17.950Z,16.66
2016-04-20T20:54:17.938Z,16.61
2016-04-20T20:55:17.909Z,16.61
2016-04-20T20:56:17.912Z,16.64
2016-04-20T20:57:17.883Z,16.5
2016-04-20T20:58:17.886Z,16.61
2016-04-20T20:59:17.857Z,16.51
2016-04-20T21:00:17.861Z,16.51
2016-04-20T21:01:17.831Z,16.54
2016-04-20T21:02:17.835Z,16.64
2016-04-20T21:03:17.806Z,16.35
2016-04-20T21:04:17.794Z,16.41
2016-04-20T21:05:17.781Z,16.53
2016-04-20T21:06:17.596Z,16.51
2016-04-20T21:07:17.739Z,16.38
2016-04-20T21:08:17.742Z,16.31
2016-04-20T21:09:17.728Z,16.39
2016-04-20T21:10:17.700Z,16.39
2016-04-20T21:11:17.688Z,16.41
2016-04-20T21:12:17.674Z,16.53
2016-04-20T21:13:17.661Z,16.51
2016-04-20T21:14:17.649Z,16.54
2016-04-20T21:15:17.480Z,16.51
2016-04-20T21:16:17.608Z,16.54
2016-04-20T21:17:17.594Z,16.56
2016-04-20T21:18:17.597Z,16.47
2016-04-20T21:19:17.569Z,16.39
2016-04-20T21:20:17.555Z,16.39
2016-04-20T21:21:17.543Z,16.39
2016-04-20T21:22:20.529Z,16.43
2016-04-20T21:23:20.516Z,16.35